sensor_id;sensor_type;location;lat;lon;timestamp;P1;durP1;ratioP1;P2;durP2;ratioP2
44850;SDS011;30583;48.714;9.386;2024-01-30T00:02:14;22.13;;;13.88;;
44850;SDS011;30583;48.714;9.386;2024-01-30T00:04:40;23.75;;;13.88;;
44850;SDS011;30583;48.714;9.386;2024-01-30T00:07:05;21.67;;;13.73;;
44850;SDS011;30583;48.714;9.386;2024-01-30T00:09:31;23.48;;;13.60;;
44850;SDS011;30583;48.714;9.386;2024-01-30T00:11:57;20.40;;;14.57;;
44850;SDS011;30583;48.714;9.386;2024-01-30T00:14:22;21.75;;;13.80;;
44850;SDS011;30583;48.714;9.386;2024-01-30T00:16:48;21.00;;;13.70;;
44850;SDS011;30583;48.714;9.386;2024-01-30T00:19:13;24.20;;;13.82;;
44850;SDS011;30583;48.714;9.386;2024-01-30T00:21:39;22.08;;;13.00;;
44850;SDS011;30583;48.714;9.386;2024-01-30T00:24:05;22.20;;;12.45;;
44850;SDS011;30583;48.714;9.386;2024-01-30T00:26:30;31.67;;;13.90;;
44850;SDS011;30583;48.714;9.386;2024-01-30T00:28:56;23.58;;;13.85;;
44850;SDS011;30583;48.714;9.386;2024-01-30T00:31:21;22.38;;;14.07;;
44850;SDS011;30583;48.714;9.386;2024-01-30T00:33:47;19.00;;;12.45;;
44850;SDS011;30583;48.714;9.386;2024-01-30T00:36:12;24.10;;;12.93;;
44850;SDS011;30583;48.714;9.386;2024-01-30T00:38:38;17.38;;;12.30;;
44850;SDS011;30583;48.714;9.386;2024-01-30T00:41:05;20.10;;;12.35;;
44850;SDS011;30583;48.714;9.386;2024-01-30T00:43:32;19.33;;;12.43;;
44850;SDS011;30583;48.714;9.386;2024-01-30T00:45:58;19.77;;;12.20;;
44850;SDS011;30583;48.714;9.386;2024-01-30T00:48:24;18.00;;;12.07;;
44850;SDS011;30583;48.714;9.386;2024-01-30T00:50:50;22.90;;;13.57;;
44850;SDS011;30583;48.714;9.386;2024-01-30T00:53:15;21.10;;;12.18;;
44850;SDS011;30583;48.714;9.386;2024-01-30T00:55:41;18.02;;;12.00;;
44850;SDS011;30583;48.714;9.386;2024-01-30T00:58:06;17.58;;;12.55;;
44850;SDS011;30583;48.714;9.386;2024-01-30T01:00:32;18.17;;;11.70;;
44850;SDS011;30583;48.714;9.386;2024-01-30T01:02:58;18.98;;;12.23;;
44850;SDS011;30583;48.714;9.386;2024-01-30T01:05:24;17.42;;;12.13;;
44850;SDS011;30583;48.714;9.386;2024-01-30T01:07:50;18.15;;;11.77;;
44850;SDS011;30583;48.714;9.386;2024-01-30T01:10:16;20.58;;;12.00;;
44850;SDS011;30583;48.714;9.386;2024-01-30T01:12:43;19.40;;;12.20;;
44850;SDS011;30583;48.714;9.386;2024-01-30T01:15:09;17.50;;;11.77;;
44850;SDS011;30583;48.714;9.386;2024-01-30T01:17:38;16.10;;;11.02;;
44850;SDS011;30583;48.714;9.386;2024-01-30T01:20:04;17.23;;;10.65;;
44850;SDS011;30583;48.714;9.386;2024-01-30T01:22:31;15.55;;;9.75;;
44850;SDS011;30583;48.714;9.386;2024-01-30T01:24:57;18.77;;;10.48;;
44850;SDS011;30583;48.714;9.386;2024-01-30T01:27:26;16.60;;;9.82;;
44850;SDS011;30583;48.714;9.386;2024-01-30T01:29:52;19.23;;;10.38;;
44850;SDS011;30583;48.714;9.386;2024-01-30T01:32:18;16.27;;;10.77;;
44850;SDS011;30583;48.714;9.386;2024-01-30T01:34:44;19.42;;;10.80;;
44850;SDS011;30583;48.714;9.386;2024-01-30T01:37:09;15.60;;;11.00;;
44850;SDS011;30583;48.714;9.386;2024-01-30T01:39:35;21.10;;;11.23;;
44850;SDS011;30583;48.714;9.386;2024-01-30T01:42:01;18.52;;;11.75;;
44850;SDS011;30583;48.714;9.386;2024-01-30T01:44:26;19.25;;;11.55;;
44850;SDS011;30583;48.714;9.386;2024-01-30T01:46:52;17.27;;;11.10;;
44850;SDS011;30583;48.714;9.386;2024-01-30T01:49:19;18.30;;;10.95;;
44850;SDS011;30583;48.714;9.386;2024-01-30T01:51:46;19.02;;;11.25;;
44850;SDS011;30583;48.714;9.386;2024-01-30T01:54:13;18.70;;;11.15;;
44850;SDS011;30583;48.714;9.386;2024-01-30T01:56:40;17.40;;;10.98;;
44850;SDS011;30583;48.714;9.386;2024-01-30T01:59:08;18.48;;;11.40;;
44850;SDS011;30583;48.714;9.386;2024-01-30T02:01:34;14.82;;;10.07;;
44850;SDS011;30583;48.714;9.386;2024-01-30T02:04:01;16.80;;;9.82;;
44850;SDS011;30583;48.714;9.386;2024-01-30T02:06:27;17.20;;;9.95;;
44850;SDS011;30583;48.714;9.386;2024-01-30T02:08:55;15.32;;;9.80;;
44850;SDS011;30583;48.714;9.386;2024-01-30T02:11:21;17.88;;;9.98;;
44850;SDS011;30583;48.714;9.386;2024-01-30T02:13:48;15.20;;;9.73;;
44850;SDS011;30583;48.714;9.386;2024-01-30T02:16:14;15.95;;;10.43;;
44850;SDS011;30583;48.714;9.386;2024-01-30T02:18:39;17.88;;;10.77;;
44850;SDS011;30583;48.714;9.386;2024-01-30T02:21:11;15.60;;;10.23;;
44850;SDS011;30583;48.714;9.386;2024-01-30T02:23:37;16.58;;;10.10;;
44850;SDS011;30583;48.714;9.386;2024-01-30T02:26:04;16.70;;;10.45;;
44850;SDS011;30583;48.714;9.386;2024-01-30T02:28:30;16.42;;;10.60;;
44850;SDS011;30583;48.714;9.386;2024-01-30T02:30:55;19.20;;;10.43;;
44850;SDS011;30583;48.714;9.386;2024-01-30T02:33:21;17.58;;;11.23;;
44850;SDS011;30583;48.714;9.386;2024-01-30T02:35:47;17.65;;;11.02;;
44850;SDS011;30583;48.714;9.386;2024-01-30T02:38:13;16.63;;;10.95;;
44850;SDS011;30583;48.714;9.386;2024-01-30T02:40:38;16.13;;;10.43;;
44850;SDS011;30583;48.714;9.386;2024-01-30T02:43:04;16.75;;;10.23;;
44850;SDS011;30583;48.714;9.386;2024-01-30T02:45:30;14.73;;;10.50;;
44850;SDS011;30583;48.714;9.386;2024-01-30T02:47:55;18.27;;;10.77;;
44850;SDS011;30583;48.714;9.386;2024-01-30T02:50:21;18.13;;;10.88;;
44850;SDS011;30583;48.714;9.386;2024-01-30T02:52:46;18.85;;;11.07;;
44850;SDS011;30583;48.714;9.386;2024-01-30T02:55:12;18.70;;;11.38;;
44850;SDS011;30583;48.714;9.386;2024-01-30T02:57:38;19.48;;;10.85;;
44850;SDS011;30583;48.714;9.386;2024-01-30T03:00:04;19.20;;;10.75;;
44850;SDS011;30583;48.714;9.386;2024-01-30T03:02:31;20.10;;;11.20;;
44850;SDS011;30583;48.714;9.386;2024-01-30T03:04:57;16.33;;;10.60;;
44850;SDS011;30583;48.714;9.386;2024-01-30T03:07:24;16.88;;;10.98;;
44850;SDS011;30583;48.714;9.386;2024-01-30T03:09:49;15.48;;;9.88;;
44850;SDS011;30583;48.714;9.386;2024-01-30T03:12:15;15.18;;;10.13;;
44850;SDS011;30583;48.714;9.386;2024-01-30T03:14:40;14.93;;;9.60;;
44850;SDS011;30583;48.714;9.386;2024-01-30T03:17:06;16.10;;;9.88;;
44850;SDS011;30583;48.714;9.386;2024-01-30T03:19:32;15.48;;;9.32;;
44850;SDS011;30583;48.714;9.386;2024-01-30T03:21:58;15.02;;;8.90;;
44850;SDS011;30583;48.714;9.386;2024-01-30T03:24:24;15.38;;;10.57;;
44850;SDS011;30583;48.714;9.386;2024-01-30T03:26:49;17.75;;;9.98;;
44850;SDS011;30583;48.714;9.386;2024-01-30T03:29:15;17.00;;;9.95;;
44850;SDS011;30583;48.714;9.386;2024-01-30T03:31:40;14.43;;;9.25;;
44850;SDS011;30583;48.714;9.386;2024-01-30T03:34:06;18.98;;;10.05;;
44850;SDS011;30583;48.714;9.386;2024-01-30T03:36:32;20.85;;;10.27;;
44850;SDS011;30583;48.714;9.386;2024-01-30T03:38:59;22.55;;;10.95;;
44850;SDS011;30583;48.714;9.386;2024-01-30T03:41:25;20.63;;;12.25;;
44850;SDS011;30583;48.714;9.386;2024-01-30T03:43:50;21.98;;;11.48;;
44850;SDS011;30583;48.714;9.386;2024-01-30T03:46:16;22.80;;;11.23;;
44850;SDS011;30583;48.714;9.386;2024-01-30T03:48:41;18.35;;;10.68;;
44850;SDS011;30583;48.714;9.386;2024-01-30T03:51:07;17.02;;;9.13;;
44850;SDS011;30583;48.714;9.386;2024-01-30T03:53:34;12.88;;;8.40;;
44850;SDS011;30583;48.714;9.386;2024-01-30T03:56:00;13.95;;;8.10;;
44850;SDS011;30583;48.714;9.386;2024-01-30T03:58:26;14.00;;;8.60;;
44850;SDS011;30583;48.714;9.386;2024-01-30T04:00:51;15.45;;;8.60;;
44850;SDS011;30583;48.714;9.386;2024-01-30T04:03:17;13.85;;;8.70;;
44850;SDS011;30583;48.714;9.386;2024-01-30T04:05:42;12.55;;;8.40;;
44850;SDS011;30583;48.714;9.386;2024-01-30T04:08:08;12.13;;;8.60;;
44850;SDS011;30583;48.714;9.386;2024-01-30T04:10:34;12.35;;;8.23;;
44850;SDS011;30583;48.714;9.386;2024-01-30T04:12:59;15.13;;;9.43;;
44850;SDS011;30583;48.714;9.386;2024-01-30T04:15:25;18.42;;;10.57;;
44850;SDS011;30583;48.714;9.386;2024-01-30T04:17:51;15.77;;;10.07;;
44850;SDS011;30583;48.714;9.386;2024-01-30T04:20:17;15.57;;;11.07;;
44850;SDS011;30583;48.714;9.386;2024-01-30T04:22:46;12.88;;;9.23;;
44850;SDS011;30583;48.714;9.386;2024-01-30T04:25:12;13.27;;;8.65;;
44850;SDS011;30583;48.714;9.386;2024-01-30T04:27:38;12.98;;;8.30;;
44850;SDS011;30583;48.714;9.386;2024-01-30T04:30:04;14.52;;;9.85;;
44850;SDS011;30583;48.714;9.386;2024-01-30T04:32:30;15.27;;;9.38;;
44850;SDS011;30583;48.714;9.386;2024-01-30T04:34:55;15.70;;;9.57;;
44850;SDS011;30583;48.714;9.386;2024-01-30T04:37:21;14.70;;;9.65;;
44850;SDS011;30583;48.714;9.386;2024-01-30T04:39:46;14.60;;;10.07;;
44850;SDS011;30583;48.714;9.386;2024-01-30T04:42:12;17.55;;;10.48;;
44850;SDS011;30583;48.714;9.386;2024-01-30T04:44:38;18.35;;;11.10;;
44850;SDS011;30583;48.714;9.386;2024-01-30T04:47:03;15.65;;;10.25;;
44850;SDS011;30583;48.714;9.386;2024-01-30T04:49:31;15.90;;;10.05;;
44850;SDS011;30583;48.714;9.386;2024-01-30T04:51:56;17.35;;;10.52;;
44850;SDS011;30583;48.714;9.386;2024-01-30T04:54:22;15.32;;;9.65;;
44850;SDS011;30583;48.714;9.386;2024-01-30T04:56:48;11.88;;;8.93;;
44850;SDS011;30583;48.714;9.386;2024-01-30T04:59:13;15.70;;;9.88;;
44850;SDS011;30583;48.714;9.386;2024-01-30T05:01:39;18.40;;;10.27;;
44850;SDS011;30583;48.714;9.386;2024-01-30T05:04:07;15.25;;;10.65;;
44850;SDS011;30583;48.714;9.386;2024-01-30T05:06:34;15.60;;;10.75;;
44850;SDS011;30583;48.714;9.386;2024-01-30T05:09:00;17.98;;;11.30;;
44850;SDS011;30583;48.714;9.386;2024-01-30T05:11:26;19.23;;;10.30;;
44850;SDS011;30583;48.714;9.386;2024-01-30T05:13:51;15.65;;;10.32;;
44850;SDS011;30583;48.714;9.386;2024-01-30T05:16:17;16.80;;;10.77;;
44850;SDS011;30583;48.714;9.386;2024-01-30T05:18:43;19.02;;;11.10;;
44850;SDS011;30583;48.714;9.386;2024-01-30T05:21:08;16.70;;;11.65;;
44850;SDS011;30583;48.714;9.386;2024-01-30T05:23:35;15.48;;;10.10;;
44850;SDS011;30583;48.714;9.386;2024-01-30T05:26:00;19.85;;;11.15;;
44850;SDS011;30583;48.714;9.386;2024-01-30T05:28:26;16.42;;;10.10;;
44850;SDS011;30583;48.714;9.386;2024-01-30T05:30:52;15.95;;;10.43;;
44850;SDS011;30583;48.714;9.386;2024-01-30T05:33:23;20.50;;;12.65;;
44850;SDS011;30583;48.714;9.386;2024-01-30T05:35:49;22.08;;;15.45;;
44850;SDS011;30583;48.714;9.386;2024-01-30T05:38:17;29.88;;;18.52;;
44850;SDS011;30583;48.714;9.386;2024-01-30T05:40:43;34.60;;;22.40;;
44850;SDS011;30583;48.714;9.386;2024-01-30T05:43:08;44.30;;;28.77;;
44850;SDS011;30583;48.714;9.386;2024-01-30T05:45:34;32.22;;;21.30;;
44850;SDS011;30583;48.714;9.386;2024-01-30T05:48:00;20.52;;;15.45;;
44850;SDS011;30583;48.714;9.386;2024-01-30T05:50:26;22.15;;;13.98;;
44850;SDS011;30583;48.714;9.386;2024-01-30T05:52:52;21.20;;;14.05;;
44850;SDS011;30583;48.714;9.386;2024-01-30T05:55:17;25.42;;;13.82;;
44850;SDS011;30583;48.714;9.386;2024-01-30T05:57:43;18.77;;;13.13;;
44850;SDS011;30583;48.714;9.386;2024-01-30T06:00:09;19.83;;;13.38;;
44850;SDS011;30583;48.714;9.386;2024-01-30T06:02:34;21.63;;;14.50;;
44850;SDS011;30583;48.714;9.386;2024-01-30T06:05:00;26.50;;;16.35;;
44850;SDS011;30583;48.714;9.386;2024-01-30T06:07:26;25.98;;;14.18;;
44850;SDS011;30583;48.714;9.386;2024-01-30T06:09:51;20.67;;;13.27;;
44850;SDS011;30583;48.714;9.386;2024-01-30T06:12:17;20.90;;;13.20;;
44850;SDS011;30583;48.714;9.386;2024-01-30T06:14:42;20.17;;;12.65;;
44850;SDS011;30583;48.714;9.386;2024-01-30T06:17:08;22.65;;;12.95;;
44850;SDS011;30583;48.714;9.386;2024-01-30T06:19:34;20.63;;;12.88;;
44850;SDS011;30583;48.714;9.386;2024-01-30T06:22:00;20.35;;;12.40;;
44850;SDS011;30583;48.714;9.386;2024-01-30T06:24:26;18.33;;;12.38;;
44850;SDS011;30583;48.714;9.386;2024-01-30T06:26:52;22.65;;;13.82;;
44850;SDS011;30583;48.714;9.386;2024-01-30T06:29:18;19.83;;;14.48;;
44850;SDS011;30583;48.714;9.386;2024-01-30T06:31:43;29.77;;;19.10;;
44850;SDS011;30583;48.714;9.386;2024-01-30T06:34:09;32.67;;;19.23;;
44850;SDS011;30583;48.714;9.386;2024-01-30T06:36:36;22.00;;;14.77;;
44850;SDS011;30583;48.714;9.386;2024-01-30T06:39:02;20.63;;;13.07;;
44850;SDS011;30583;48.714;9.386;2024-01-30T06:41:28;19.63;;;11.95;;
44850;SDS011;30583;48.714;9.386;2024-01-30T06:43:54;19.50;;;13.73;;
44850;SDS011;30583;48.714;9.386;2024-01-30T06:46:20;20.25;;;13.27;;
44850;SDS011;30583;48.714;9.386;2024-01-30T06:48:46;20.25;;;12.95;;
44850;SDS011;30583;48.714;9.386;2024-01-30T06:51:11;17.30;;;12.63;;
44850;SDS011;30583;48.714;9.386;2024-01-30T06:53:37;18.35;;;11.30;;
44850;SDS011;30583;48.714;9.386;2024-01-30T06:56:03;17.45;;;11.35;;
44850;SDS011;30583;48.714;9.386;2024-01-30T06:58:29;19.42;;;11.38;;
44850;SDS011;30583;48.714;9.386;2024-01-30T07:00:55;18.88;;;11.63;;
44850;SDS011;30583;48.714;9.386;2024-01-30T07:03:21;16.80;;;10.25;;
44850;SDS011;30583;48.714;9.386;2024-01-30T07:05:46;15.38;;;11.27;;
44850;SDS011;30583;48.714;9.386;2024-01-30T07:08:12;19.52;;;11.45;;
44850;SDS011;30583;48.714;9.386;2024-01-30T07:10:38;19.05;;;13.05;;
44850;SDS011;30583;48.714;9.386;2024-01-30T07:13:03;21.70;;;13.00;;
44850;SDS011;30583;48.714;9.386;2024-01-30T07:15:30;18.35;;;12.25;;
44850;SDS011;30583;48.714;9.386;2024-01-30T07:17:56;19.23;;;11.93;;
44850;SDS011;30583;48.714;9.386;2024-01-30T07:20:22;20.48;;;11.95;;
44850;SDS011;30583;48.714;9.386;2024-01-30T07:22:47;18.42;;;11.63;;
44850;SDS011;30583;48.714;9.386;2024-01-30T07:25:13;18.27;;;11.45;;
44850;SDS011;30583;48.714;9.386;2024-01-30T07:27:39;26.27;;;12.70;;
44850;SDS011;30583;48.714;9.386;2024-01-30T07:30:05;18.75;;;12.90;;
44850;SDS011;30583;48.714;9.386;2024-01-30T07:32:31;20.00;;;12.93;;
44850;SDS011;30583;48.714;9.386;2024-01-30T07:34:56;21.20;;;13.63;;
44850;SDS011;30583;48.714;9.386;2024-01-30T07:37:22;21.48;;;13.57;;
44850;SDS011;30583;48.714;9.386;2024-01-30T07:39:48;20.88;;;13.10;;
44850;SDS011;30583;48.714;9.386;2024-01-30T07:42:13;24.17;;;13.73;;
44850;SDS011;30583;48.714;9.386;2024-01-30T07:44:39;20.85;;;12.70;;
44850;SDS011;30583;48.714;9.386;2024-01-30T07:47:04;20.55;;;14.40;;
44850;SDS011;30583;48.714;9.386;2024-01-30T07:49:30;26.17;;;13.95;;
44850;SDS011;30583;48.714;9.386;2024-01-30T07:51:56;27.15;;;16.08;;
44850;SDS011;30583;48.714;9.386;2024-01-30T07:54:21;32.88;;;19.73;;
44850;SDS011;30583;48.714;9.386;2024-01-30T07:56:48;38.60;;;22.45;;
44850;SDS011;30583;48.714;9.386;2024-01-30T07:59:14;37.70;;;19.20;;
44850;SDS011;30583;48.714;9.386;2024-01-30T08:01:39;34.05;;;18.20;;
44850;SDS011;30583;48.714;9.386;2024-01-30T08:04:06;26.08;;;15.40;;
44850;SDS011;30583;48.714;9.386;2024-01-30T08:06:32;25.95;;;14.68;;
44850;SDS011;30583;48.714;9.386;2024-01-30T08:08:58;21.75;;;13.52;;
44850;SDS011;30583;48.714;9.386;2024-01-30T08:11:24;22.70;;;13.48;;
44850;SDS011;30583;48.714;9.386;2024-01-30T08:13:54;20.35;;;13.57;;
44850;SDS011;30583;48.714;9.386;2024-01-30T08:16:20;22.98;;;13.77;;
44850;SDS011;30583;48.714;9.386;2024-01-30T08:18:45;27.20;;;15.02;;
44850;SDS011;30583;48.714;9.386;2024-01-30T08:21:11;24.65;;;14.23;;
44850;SDS011;30583;48.714;9.386;2024-01-30T08:23:39;18.90;;;13.02;;
44850;SDS011;30583;48.714;9.386;2024-01-30T08:26:05;22.17;;;14.27;;
44850;SDS011;30583;48.714;9.386;2024-01-30T08:28:31;20.85;;;13.93;;
44850;SDS011;30583;48.714;9.386;2024-01-30T08:30:56;21.88;;;13.88;;
44850;SDS011;30583;48.714;9.386;2024-01-30T08:33:22;20.33;;;12.20;;
44850;SDS011;30583;48.714;9.386;2024-01-30T08:35:47;21.10;;;12.73;;
44850;SDS011;30583;48.714;9.386;2024-01-30T08:38:13;24.38;;;13.80;;
44850;SDS011;30583;48.714;9.386;2024-01-30T08:40:39;21.17;;;13.68;;
44850;SDS011;30583;48.714;9.386;2024-01-30T08:43:04;21.85;;;12.73;;
44850;SDS011;30583;48.714;9.386;2024-01-30T08:45:30;22.80;;;13.73;;
44850;SDS011;30583;48.714;9.386;2024-01-30T08:47:56;22.50;;;13.63;;
44850;SDS011;30583;48.714;9.386;2024-01-30T08:50:21;23.67;;;14.75;;
44850;SDS011;30583;48.714;9.386;2024-01-30T08:52:47;20.30;;;12.98;;
44850;SDS011;30583;48.714;9.386;2024-01-30T08:55:13;24.02;;;13.23;;
44850;SDS011;30583;48.714;9.386;2024-01-30T08:57:38;21.17;;;13.40;;
44850;SDS011;30583;48.714;9.386;2024-01-30T09:00:04;19.75;;;11.80;;
44850;SDS011;30583;48.714;9.386;2024-01-30T09:02:32;20.52;;;12.38;;
44850;SDS011;30583;48.714;9.386;2024-01-30T09:04:57;19.23;;;12.50;;
44850;SDS011;30583;48.714;9.386;2024-01-30T09:07:23;20.10;;;12.25;;
44850;SDS011;30583;48.714;9.386;2024-01-30T09:09:49;24.95;;;14.27;;
44850;SDS011;30583;48.714;9.386;2024-01-30T09:12:14;18.70;;;12.93;;
44850;SDS011;30583;48.714;9.386;2024-01-30T09:14:40;22.83;;;13.07;;
44850;SDS011;30583;48.714;9.386;2024-01-30T09:17:06;22.90;;;13.50;;
44850;SDS011;30583;48.714;9.386;2024-01-30T09:19:32;21.83;;;12.38;;
44850;SDS011;30583;48.714;9.386;2024-01-30T09:21:58;22.02;;;13.77;;
44850;SDS011;30583;48.714;9.386;2024-01-30T09:24:24;23.33;;;13.48;;
44850;SDS011;30583;48.714;9.386;2024-01-30T09:26:51;23.73;;;13.95;;
44850;SDS011;30583;48.714;9.386;2024-01-30T09:29:16;22.45;;;13.38;;
44850;SDS011;30583;48.714;9.386;2024-01-30T09:31:45;22.63;;;13.30;;
44850;SDS011;30583;48.714;9.386;2024-01-30T09:34:11;20.70;;;12.48;;
44850;SDS011;30583;48.714;9.386;2024-01-30T09:36:37;18.05;;;12.45;;
44850;SDS011;30583;48.714;9.386;2024-01-30T09:39:02;22.25;;;13.50;;
44850;SDS011;30583;48.714;9.386;2024-01-30T09:41:29;23.42;;;13.43;;
44850;SDS011;30583;48.714;9.386;2024-01-30T09:44:29;21.20;;;12.57;;
44850;SDS011;30583;48.714;9.386;2024-01-30T09:46:55;19.50;;;12.80;;
44850;SDS011;30583;48.714;9.386;2024-01-30T09:49:23;20.85;;;12.18;;
44850;SDS011;30583;48.714;9.386;2024-01-30T09:51:50;20.70;;;13.10;;
44850;SDS011;30583;48.714;9.386;2024-01-30T09:54:16;18.92;;;13.30;;
44850;SDS011;30583;48.714;9.386;2024-01-30T09:56:42;21.52;;;12.75;;
44850;SDS011;30583;48.714;9.386;2024-01-30T09:59:08;27.83;;;14.52;;
44850;SDS011;30583;48.714;9.386;2024-01-30T10:01:34;23.98;;;13.68;;
44850;SDS011;30583;48.714;9.386;2024-01-30T10:04:01;24.08;;;14.40;;
44850;SDS011;30583;48.714;9.386;2024-01-30T10:06:26;26.58;;;15.48;;
44850;SDS011;30583;48.714;9.386;2024-01-30T10:08:53;25.02;;;14.30;;
44850;SDS011;30583;48.714;9.386;2024-01-30T10:11:18;17.67;;;11.35;;
44850;SDS011;30583;48.714;9.386;2024-01-30T10:13:44;19.33;;;10.70;;
44850;SDS011;30583;48.714;9.386;2024-01-30T10:16:10;16.98;;;10.90;;
44850;SDS011;30583;48.714;9.386;2024-01-30T10:18:38;20.17;;;10.18;;
44850;SDS011;30583;48.714;9.386;2024-01-30T10:21:03;22.55;;;11.73;;
44850;SDS011;30583;48.714;9.386;2024-01-30T10:23:29;19.35;;;10.77;;
44850;SDS011;30583;48.714;9.386;2024-01-30T10:25:56;17.15;;;10.80;;
44850;SDS011;30583;48.714;9.386;2024-01-30T10:28:21;21.23;;;11.23;;
44850;SDS011;30583;48.714;9.386;2024-01-30T10:30:56;19.40;;;11.35;;
44850;SDS011;30583;48.714;9.386;2024-01-30T10:33:23;27.50;;;10.82;;
44850;SDS011;30583;48.714;9.386;2024-01-30T10:35:49;16.63;;;10.77;;
44850;SDS011;30583;48.714;9.386;2024-01-30T10:38:16;18.67;;;9.93;;
44850;SDS011;30583;48.714;9.386;2024-01-30T10:40:44;19.48;;;9.88;;
44850;SDS011;30583;48.714;9.386;2024-01-30T10:43:11;17.73;;;9.50;;
44850;SDS011;30583;48.714;9.386;2024-01-30T10:45:40;19.77;;;9.13;;
44850;SDS011;30583;48.714;9.386;2024-01-30T10:48:10;15.75;;;9.32;;
44850;SDS011;30583;48.714;9.386;2024-01-30T10:50:37;21.58;;;8.93;;
44850;SDS011;30583;48.714;9.386;2024-01-30T10:53:05;18.50;;;9.43;;
44850;SDS011;30583;48.714;9.386;2024-01-30T10:55:32;14.10;;;8.57;;
44850;SDS011;30583;48.714;9.386;2024-01-30T10:57:59;13.20;;;8.60;;
44850;SDS011;30583;48.714;9.386;2024-01-30T11:00:25;15.43;;;9.48;;
44850;SDS011;30583;48.714;9.386;2024-01-30T11:02:51;14.02;;;8.65;;
44850;SDS011;30583;48.714;9.386;2024-01-30T11:05:23;15.55;;;9.20;;
44850;SDS011;30583;48.714;9.386;2024-01-30T11:07:52;16.35;;;9.38;;
44850;SDS011;30583;48.714;9.386;2024-01-30T11:10:18;17.25;;;9.50;;
44850;SDS011;30583;48.714;9.386;2024-01-30T11:12:45;15.15;;;7.93;;
44850;SDS011;30583;48.714;9.386;2024-01-30T11:15:18;13.32;;;8.55;;
44850;SDS011;30583;48.714;9.386;2024-01-30T11:20:11;15.23;;;8.52;;
44850;SDS011;30583;48.714;9.386;2024-01-30T11:22:40;15.77;;;9.32;;
44850;SDS011;30583;48.714;9.386;2024-01-30T11:25:10;15.52;;;9.80;;
44850;SDS011;30583;48.714;9.386;2024-01-30T11:27:37;13.90;;;9.52;;
44850;SDS011;30583;48.714;9.386;2024-01-30T11:30:03;20.30;;;10.27;;
44850;SDS011;30583;48.714;9.386;2024-01-30T11:32:29;22.05;;;12.43;;
44850;SDS011;30583;48.714;9.386;2024-01-30T11:34:55;16.25;;;10.25;;
44850;SDS011;30583;48.714;9.386;2024-01-30T11:37:21;15.85;;;9.30;;
44850;SDS011;30583;48.714;9.386;2024-01-30T11:39:49;14.20;;;10.60;;
44850;SDS011;30583;48.714;9.386;2024-01-30T11:42:16;19.75;;;11.20;;
44850;SDS011;30583;48.714;9.386;2024-01-30T11:44:46;13.50;;;9.70;;
44850;SDS011;30583;48.714;9.386;2024-01-30T11:47:12;15.23;;;9.25;;
44850;SDS011;30583;48.714;9.386;2024-01-30T11:49:38;14.55;;;9.38;;
44850;SDS011;30583;48.714;9.386;2024-01-30T11:52:04;14.25;;;9.43;;
44850;SDS011;30583;48.714;9.386;2024-01-30T11:54:30;16.83;;;9.27;;
44850;SDS011;30583;48.714;9.386;2024-01-30T11:56:56;18.35;;;10.27;;
44850;SDS011;30583;48.714;9.386;2024-01-30T11:59:21;15.63;;;10.18;;
44850;SDS011;30583;48.714;9.386;2024-01-30T12:01:47;16.13;;;10.05;;
44850;SDS011;30583;48.714;9.386;2024-01-30T12:04:13;18.35;;;10.55;;
44850;SDS011;30583;48.714;9.386;2024-01-30T12:06:38;21.85;;;10.15;;
44850;SDS011;30583;48.714;9.386;2024-01-30T12:09:05;18.38;;;10.00;;
44850;SDS011;30583;48.714;9.386;2024-01-30T12:11:43;19.00;;;11.40;;
44850;SDS011;30583;48.714;9.386;2024-01-30T12:14:12;17.95;;;9.93;;
44850;SDS011;30583;48.714;9.386;2024-01-30T12:16:38;17.52;;;10.70;;
44850;SDS011;30583;48.714;9.386;2024-01-30T12:19:03;14.82;;;10.02;;
44850;SDS011;30583;48.714;9.386;2024-01-30T12:21:29;16.83;;;10.40;;
44850;SDS011;30583;48.714;9.386;2024-01-30T12:23:58;23.30;;;12.55;;
44850;SDS011;30583;48.714;9.386;2024-01-30T12:26:25;30.83;;;14.90;;
44850;SDS011;30583;48.714;9.386;2024-01-30T12:28:53;20.45;;;11.30;;
44850;SDS011;30583;48.714;9.386;2024-01-30T12:31:27;23.08;;;11.65;;
44850;SDS011;30583;48.714;9.386;2024-01-30T12:33:53;22.50;;;10.77;;
44850;SDS011;30583;48.714;9.386;2024-01-30T12:36:19;22.80;;;12.27;;
44850;SDS011;30583;48.714;9.386;2024-01-30T12:38:46;21.73;;;11.27;;
44850;SDS011;30583;48.714;9.386;2024-01-30T12:41:12;18.70;;;9.73;;
44850;SDS011;30583;48.714;9.386;2024-01-30T12:43:37;23.25;;;11.88;;
44850;SDS011;30583;48.714;9.386;2024-01-30T12:46:03;25.92;;;13.43;;
44850;SDS011;30583;48.714;9.386;2024-01-30T12:48:29;27.45;;;12.70;;
44850;SDS011;30583;48.714;9.386;2024-01-30T12:50:55;18.85;;;11.48;;
44850;SDS011;30583;48.714;9.386;2024-01-30T12:53:21;23.85;;;11.93;;
44850;SDS011;30583;48.714;9.386;2024-01-30T12:55:47;16.60;;;10.40;;
44850;SDS011;30583;48.714;9.386;2024-01-30T12:58:14;18.48;;;9.00;;
44850;SDS011;30583;48.714;9.386;2024-01-30T13:00:40;16.65;;;8.73;;
44850;SDS011;30583;48.714;9.386;2024-01-30T13:03:07;12.48;;;9.13;;
44850;SDS011;30583;48.714;9.386;2024-01-30T13:05:33;16.20;;;10.57;;
44850;SDS011;30583;48.714;9.386;2024-01-30T13:07:59;16.55;;;8.77;;
44850;SDS011;30583;48.714;9.386;2024-01-30T13:10:24;19.65;;;8.95;;
44850;SDS011;30583;48.714;9.386;2024-01-30T13:12:50;23.85;;;9.18;;
44850;SDS011;30583;48.714;9.386;2024-01-30T13:15:16;14.88;;;8.57;;
44850;SDS011;30583;48.714;9.386;2024-01-30T13:17:41;13.07;;;8.57;;
44850;SDS011;30583;48.714;9.386;2024-01-30T13:20:09;14.65;;;8.57;;
44850;SDS011;30583;48.714;9.386;2024-01-30T13:22:34;16.33;;;9.25;;
44850;SDS011;30583;48.714;9.386;2024-01-30T13:25:00;13.93;;;8.98;;
44850;SDS011;30583;48.714;9.386;2024-01-30T13:27:26;16.13;;;9.68;;
44850;SDS011;30583;48.714;9.386;2024-01-30T13:29:51;16.27;;;10.20;;
44850;SDS011;30583;48.714;9.386;2024-01-30T13:32:17;15.25;;;10.35;;
44850;SDS011;30583;48.714;9.386;2024-01-30T13:34:43;16.20;;;9.70;;
44850;SDS011;30583;48.714;9.386;2024-01-30T13:37:08;13.25;;;8.70;;
44850;SDS011;30583;48.714;9.386;2024-01-30T13:39:34;12.50;;;7.38;;
44850;SDS011;30583;48.714;9.386;2024-01-30T13:42:00;10.38;;;7.78;;
44850;SDS011;30583;48.714;9.386;2024-01-30T13:44:25;13.77;;;8.95;;
44850;SDS011;30583;48.714;9.386;2024-01-30T13:46:51;14.18;;;9.68;;
44850;SDS011;30583;48.714;9.386;2024-01-30T13:49:16;16.05;;;10.10;;
44850;SDS011;30583;48.714;9.386;2024-01-30T13:51:42;15.00;;;8.93;;
44850;SDS011;30583;48.714;9.386;2024-01-30T13:54:07;15.13;;;9.10;;
44850;SDS011;30583;48.714;9.386;2024-01-30T13:56:33;15.63;;;8.73;;
44850;SDS011;30583;48.714;9.386;2024-01-30T13:58:59;11.05;;;8.15;;
44850;SDS011;30583;48.714;9.386;2024-01-30T14:01:26;27.73;;;13.82;;
44850;SDS011;30583;48.714;9.386;2024-01-30T14:03:52;27.25;;;13.40;;
44850;SDS011;30583;48.714;9.386;2024-01-30T14:06:17;26.30;;;10.85;;
44850;SDS011;30583;48.714;9.386;2024-01-30T14:08:44;22.90;;;10.00;;
44850;SDS011;30583;48.714;9.386;2024-01-30T14:11:09;16.95;;;9.30;;
44850;SDS011;30583;48.714;9.386;2024-01-30T14:13:35;21.65;;;12.18;;
44850;SDS011;30583;48.714;9.386;2024-01-30T14:16:00;20.45;;;12.13;;
44850;SDS011;30583;48.714;9.386;2024-01-30T14:18:26;27.80;;;14.68;;
44850;SDS011;30583;48.714;9.386;2024-01-30T14:20:52;25.13;;;14.60;;